Time;durP1;ratioP1;P1;durP2;ratioP2;P2;SDS_P1;SDS_P2;PMS_P1;PMS_P2;Temp;Humidity;BMP_temperature;BMP_pressure;BME280_temperature;BME280_humidity;BME280_pressure;Samples;Min_cycle;Max_cycle;Signal;HPM_P1;HPM_P2
2022/04/13 00:00:32;;;;;;;27.55;13.40;;;9.00;99.90;;;;;;4913957;29;20020;-85
2022/04/13 00:02:58;;;;;;;29.83;14.10;;;9.00;99.90;;;;;;4916595;29;20032;-87
2022/04/13 00:05:24;;;;;;;34.63;12.82;;;9.00;99.90;;;;;;4920316;29;20540;-87
2022/04/13 00:07:50;;;;;;;37.40;14.80;;;9.00;99.90;;;;;;4920578;29;20060;-85
2022/04/13 00:10:16;;;;;;;32.00;14.07;;;9.00;99.90;;;;;;4916278;29;20013;-85
2022/04/13 00:12:42;;;;;;;28.15;12.88;;;8.90;99.90;;;;;;4913207;29;20029;-85
2022/04/13 00:15:09;;;;;;;30.63;13.90;;;8.90;99.90;;;;;;4914060;29;20052;-85
2022/04/13 00:17:36;;;;;;;25.60;13.05;;;8.90;99.90;;;;;;4917794;29;20037;-86
2022/04/13 00:20:06;;;;;;;24.83;12.57;;;8.90;99.90;;;;;;4921125;29;20092;-85
2022/04/13 00:22:32;;;;;;;30.27;12.75;;;8.90;99.90;;;;;;4915475;29;20025;-86
2022/04/13 00:24:58;;;;;;;27.52;13.07;;;8.90;99.90;;;;;;4912384;29;20037;-86
2022/04/13 00:27:24;;;;;;;27.10;13.27;;;8.90;99.90;;;;;;4911673;29;20043;-86
2022/04/13 00:29:51;;;;;;;33.10;13.65;;;8.90;99.90;;;;;;4916660;29;20033;-85
2022/04/13 00:32:17;;;;;;;28.90;13.13;;;8.90;99.90;;;;;;4913501;29;20048;-84
2022/04/13 00:34:43;;;;;;;28.63;13.00;;;8.80;99.90;;;;;;4925076;29;20028;-85
2022/04/13 00:37:09;;;;;;;29.45;14.32;;;8.90;99.90;;;;;;4924034;29;20056;-85
2022/04/13 00:39:34;;;;;;;34.85;13.57;;;8.80;99.90;;;;;;4921151;29;20031;-85
2022/04/13 00:42:06;;;;;;;25.40;12.50;;;8.80;99.90;;;;;;4917947;29;20136;-85
2022/04/13 00:44:32;;;;;;;29.38;13.63;;;8.80;99.90;;;;;;4915045;29;20032;-86
2022/04/13 00:47:03;;;;;;;29.95;12.95;;;8.80;99.90;;;;;;4912370;29;20021;-85
2022/04/13 00:49:29;;;;;;;29.17;13.75;;;8.70;99.90;;;;;;4911672;29;20084;-85
2022/04/13 00:51:59;;;;;;;28.77;13.60;;;8.70;99.90;;;;;;4910943;29;20021;-84
2022/04/13 00:54:28;;;;;;;26.98;13.45;;;8.70;99.90;;;;;;4919541;29;20218;-84
2022/04/13 00:56:56;;;;;;;32.38;13.65;;;8.70;99.90;;;;;;4914118;29;20029;-85
2022/04/13 00:59:24;;;;;;;27.55;13.15;;;8.70;99.90;;;;;;4913565;29;20029;-86
2022/04/13 01:01:53;;;;;;;26.30;12.38;;;8.70;99.90;;;;;;4913348;29;20437;-85
2022/04/13 01:04:20;;;;;;;27.40;13.50;;;8.70;99.90;;;;;;4912984;29;20045;-85
2022/04/13 01:06:45;;;;;;;32.00;14.75;;;8.70;99.90;;;;;;4910755;29;20101;-86
2022/04/13 01:09:13;;;;;;;29.85;13.65;;;8.70;99.90;;;;;;4912909;29;20442;-85
2022/04/13 01:11:40;;;;;;;32.35;13.38;;;8.70;99.90;;;;;;4907706;29;20021;-87
2022/04/13 01:14:06;;;;;;;29.50;12.93;;;8.70;99.90;;;;;;4914156;29;20072;-86
2022/04/13 01:16:34;;;;;;;30.80;13.73;;;8.70;99.90;;;;;;4915666;29;20025;-86
2022/04/13 01:18:59;;;;;;;28.77;13.73;;;8.70;99.90;;;;;;4917481;29;20291;-85
2022/04/13 01:21:42;;;;;;;26.92;13.15;;;8.70;99.90;;;;;;4914420;29;20028;-84
2022/04/13 01:24:09;;;;;;;26.20;13.00;;;8.70;99.90;;;;;;4918206;29;20047;-85
2022/04/13 01:26:35;;;;;;;32.38;13.68;;;8.70;99.90;;;;;;4919761;29;20028;-85
2022/04/13 01:29:01;;;;;;;32.67;13.38;;;8.70;99.90;;;;;;4923190;29;20045;-86
2022/04/13 01:31:27;;;;;;;26.52;13.52;;;8.70;99.90;;;;;;4922087;29;20048;-86
2022/04/13 01:33:54;;;;;;;27.65;13.07;;;8.70;99.90;;;;;;4917252;29;20033;-85
2022/04/13 01:36:20;;;;;;;32.63;13.52;;;8.70;99.90;;;;;;4916684;29;20118;-85
2022/04/13 01:38:46;;;;;;;27.10;13.18;;;8.70;99.90;;;;;;4914104;29;20256;-86
2022/04/13 01:41:11;;;;;;;25.48;13.43;;;8.70;99.90;;;;;;4919211;29;20061;-85
2022/04/13 01:43:37;;;;;;;28.00;13.85;;;8.60;99.90;;;;;;4913520;29;20052;-85
2022/04/13 01:46:04;;;;;;;26.67;12.88;;;8.60;99.90;;;;;;4913251;29;20028;-85
2022/04/13 01:48:31;;;;;;;28.65;13.65;;;8.60;99.90;;;;;;4912255;29;20040;-85
2022/04/13 01:50:58;;;;;;;27.30;13.45;;;8.50;99.90;;;;;;4896866;29;20215;-85
2022/04/13 01:53:25;;;;;;;31.17;13.00;;;8.50;99.90;;;;;;4913721;29;20081;-84
2022/04/13 01:55:51;;;;;;;38.47;14.73;;;8.40;99.90;;;;;;4907259;29;20032;-84
2022/04/13 01:58:17;;;;;;;31.52;13.68;;;8.40;99.90;;;;;;4913304;29;20115;-85
2022/04/13 02:00:43;;;;;;;26.10;12.95;;;8.40;99.90;;;;;;4911835;29;20021;-85
2022/04/13 02:03:09;;;;;;;27.70;13.07;;;8.40;99.90;;;;;;4913269;29;20129;-86
2022/04/13 02:05:34;;;;;;;26.23;13.02;;;8.40;99.90;;;;;;4915619;29;20060;-86
2022/04/13 02:08:01;;;;;;;27.90;13.10;;;8.40;99.90;;;;;;4917123;29;20087;-85
2022/04/13 02:10:27;;;;;;;31.80;13.77;;;8.40;99.90;;;;;;4911568;29;20115;-85
2022/04/13 02:12:53;;;;;;;28.13;12.15;;;8.40;99.90;;;;;;4911214;29;20123;-85
2022/04/13 02:15:19;;;;;;;27.17;12.10;;;8.40;99.90;;;;;;4909639;29;20021;-84
2022/04/13 02:17:45;;;;;;;25.83;12.13;;;8.40;99.90;;;;;;4917979;29;20032;-85
2022/04/13 02:20:11;;;;;;;25.75;12.45;;;8.50;99.90;;;;;;4911747;29;20021;-85
2022/04/13 02:22:37;;;;;;;27.42;11.95;;;8.50;99.90;;;;;;4911712;29;20025;-85
2022/04/13 02:25:04;;;;;;;29.42;10.98;;;8.50;99.90;;;;;;4896458;29;20043;-85
2022/04/13 02:27:30;;;;;;;27.08;13.00;;;8.50;99.90;;;;;;4912287;29;20084;-85
2022/04/13 02:29:56;;;;;;;27.40;10.60;;;8.50;99.90;;;;;;4910783;29;20028;-84
2022/04/13 02:32:22;;;;;;;28.95;11.52;;;8.60;99.90;;;;;;4911850;29;20065;-85
2022/04/13 02:34:48;;;;;;;24.02;11.05;;;8.60;99.90;;;;;;4913383;29;20036;-85
2022/04/13 02:37:18;;;;;;;23.63;10.32;;;8.60;99.90;;;;;;4911904;29;20035;-86
2022/04/13 02:39:44;;;;;;;22.85;10.23;;;8.60;99.90;;;;;;4917771;29;20045;-84
2022/04/13 02:42:17;;;;;;;20.10;10.15;;;8.60;99.90;;;;;;4919738;29;20053;-84
2022/04/13 02:44:43;;;;;;;25.05;11.02;;;8.60;99.90;;;;;;4919503;29;20036;-87
2022/04/13 02:47:10;;;;;;;23.15;11.55;;;8.60;99.90;;;;;;4912878;29;20052;-85
2022/04/13 02:49:36;;;;;;;27.23;11.40;;;8.70;99.90;;;;;;4911135;29;20048;-85
2022/04/13 02:52:03;;;;;;;25.38;11.65;;;8.70;99.90;;;;;;4918190;29;20057;-85
2022/04/13 02:54:29;;;;;;;27.95;11.20;;;8.70;99.90;;;;;;4915280;29;20041;-85
2022/04/13 02:56:54;;;;;;;27.95;11.25;;;8.70;99.90;;;;;;4915062;29;20016;-84
2022/04/13 02:59:20;;;;;;;27.73;10.05;;;8.70;99.90;;;;;;4921525;29;20033;-85
2022/04/13 03:01:46;;;;;;;33.70;10.88;;;8.70;99.90;;;;;;4915867;29;20084;-86
2022/04/13 03:04:13;;;;;;;24.00;10.68;;;8.70;99.90;;;;;;4914051;29;20028;-85
2022/04/13 03:06:39;;;;;;;24.35;10.60;;;8.60;99.90;;;;;;4911138;29;20091;-85
2022/04/13 03:09:05;;;;;;;24.02;10.95;;;8.60;99.90;;;;;;4913097;29;20031;-86
2022/04/13 03:11:31;;;;;;;23.75;9.88;;;8.70;99.90;;;;;;4914600;29;20088;-86
2022/04/13 03:13:57;;;;;;;24.05;10.27;;;8.60;99.90;;;;;;4915849;29;20040;-85
2022/04/13 03:16:23;;;;;;;25.08;10.93;;;8.60;99.90;;;;;;4917009;29;20032;-86
2022/04/13 03:18:49;;;;;;;24.50;9.90;;;8.60;99.90;;;;;;4919954;29;20020;-86
2022/04/13 03:21:15;;;;;;;25.23;11.02;;;8.60;99.90;;;;;;4915890;29;20072;-85
2022/04/13 03:23:40;;;;;;;21.52;9.60;;;8.60;99.90;;;;;;4918144;29;20036;-86
2022/04/13 03:26:07;;;;;;;30.15;10.18;;;8.50;99.90;;;;;;4916669;29;20476;-85
2022/04/13 03:28:34;;;;;;;24.90;10.43;;;8.50;99.90;;;;;;4917017;29;20029;-85
2022/04/13 03:30:59;;;;;;;33.63;11.30;;;8.50;99.90;;;;;;4915320;29;20036;-86
2022/04/13 03:33:25;;;;;;;26.73;10.38;;;8.50;99.90;;;;;;4914539;29;20032;-86
2022/04/13 03:35:51;;;;;;;22.00;10.38;;;8.40;99.90;;;;;;4912871;29;20036;-86
2022/04/13 03:38:17;;;;;;;20.52;9.95;;;8.40;99.90;;;;;;4912122;29;20041;-86
2022/04/13 03:40:43;;;;;;;22.10;9.57;;;8.40;99.90;;;;;;4912075;29;20083;-85
2022/04/13 03:43:08;;;;;;;24.30;9.68;;;8.40;99.90;;;;;;4911328;29;20029;-84
2022/04/13 03:45:34;;;;;;;26.52;10.60;;;8.40;99.90;;;;;;4909397;29;20035;-86
2022/04/13 03:48:00;;;;;;;27.05;10.65;;;8.40;99.90;;;;;;4910585;29;20040;-85
2022/04/13 03:50:26;;;;;;;25.27;10.38;;;8.30;99.90;;;;;;4910122;29;20040;-85
2022/04/13 03:52:52;;;;;;;22.02;9.57;;;8.30;99.90;;;;;;4912668;29;20029;-86
2022/04/13 03:55:22;;;;;;;24.30;9.48;;;8.30;99.90;;;;;;4917419;29;20084;-86
2022/04/13 03:57:51;;;;;;;20.35;10.07;;;8.30;99.90;;;;;;4911813;29;20029;-86
2022/04/13 04:00:17;;;;;;;25.25;9.77;;;8.30;99.90;;;;;;4908221;29;20032;-86
2022/04/13 04:02:44;;;;;;;23.02;10.25;;;8.20;99.90;;;;;;4914171;29;20024;-85
2022/04/13 04:05:11;;;;;;;24.83;9.70;;;8.30;99.90;;;;;;4912875;29;20040;-86
2022/04/13 04:07:38;;;;;;;20.10;9.02;;;8.20;99.90;;;;;;4902675;29;20029;-85
2022/04/13 04:10:05;;;;;;;36.25;10.40;;;8.20;99.90;;;;;;4893828;29;20024;-85
2022/04/13 04:12:36;;;;;;;20.10;9.77;;;8.20;99.90;;;;;;4913944;29;20088;-85
2022/04/13 04:15:03;;;;;;;20.70;9.00;;;8.20;99.90;;;;;;4912285;29;20088;-85
2022/04/13 04:17:29;;;;;;;25.10;9.32;;;8.20;99.90;;;;;;4895881;29;20020;-86
2022/04/13 04:19:55;;;;;;;21.10;8.85;;;8.20;99.90;;;;;;4909558;29;20021;-84
2022/04/13 04:22:24;;;;;;;22.60;8.32;;;8.30;99.90;;;;;;4908884;29;20027;-85
2022/04/13 04:24:50;;;;;;;18.30;8.57;;;8.30;99.90;;;;;;4910464;29;20048;-86
2022/04/13 04:27:16;;;;;;;25.52;9.30;;;8.30;99.90;;;;;;4912678;29;20031;-85
2022/04/13 04:29:41;;;;;;;23.02;8.82;;;8.30;99.90;;;;;;4910002;29;20032;-85
2022/04/13 04:32:08;;;;;;;20.27;8.75;;;8.40;99.90;;;;;;4904536;29;20025;-86
2022/04/13 04:34:34;;;;;;;25.88;8.50;;;8.40;99.90;;;;;;4905023;29;20033;-86
2022/04/13 04:37:00;;;;;;;18.80;8.23;;;8.50;99.90;;;;;;4904692;29;20053;-86
2022/04/13 04:39:26;;;;;;;17.67;7.70;;;8.50;99.90;;;;;;4912903;29;20021;-84
2022/04/13 04:41:52;;;;;;;21.67;8.40;;;8.50;99.90;;;;;;4903405;29;20525;-85
2022/04/13 04:44:17;;;;;;;25.48;8.30;;;8.50;99.90;;;;;;4917925;29;20040;-85
2022/04/13 04:46:43;;;;;;;21.95;8.65;;;8.50;99.90;;;;;;4917378;29;20461;-85
2022/04/13 04:49:09;;;;;;;23.60;9.27;;;8.60;99.90;;;;;;4919752;29;20027;-86
2022/04/13 04:51:35;;;;;;;23.52;9.32;;;8.60;99.90;;;;;;4907334;29;20025;-86
2022/04/13 04:54:02;;;;;;;21.73;9.23;;;8.60;99.90;;;;;;4920618;29;20135;-85
2022/04/13 04:56:28;;;;;;;19.42;8.63;;;8.60;99.90;;;;;;4917628;29;20044;-86
2022/04/13 04:58:54;;;;;;;20.63;8.30;;;8.60;99.90;;;;;;4915277;29;20036;-87
2022/04/13 05:01:20;;;;;;;17.88;8.35;;;8.60;99.90;;;;;;4914246;29;20032;-85
2022/04/13 05:03:49;;;;;;;20.10;8.95;;;8.70;99.90;;;;;;4914323;29;20060;-85
2022/04/13 05:06:21;;;;;;;18.70;7.90;;;8.70;99.90;;;;;;4913580;29;20020;-86
2022/04/13 05:08:48;;;;;;;22.05;8.07;;;8.70;99.90;;;;;;4918313;29;20067;-84
2022/04/13 05:11:14;;;;;;;19.42;8.30;;;8.80;99.90;;;;;;4911883;29;20032;-85
2022/04/13 05:13:40;;;;;;;17.77;8.38;;;8.80;99.90;;;;;;4912088;29;20025;-84
2022/04/13 05:16:06;;;;;;;24.15;9.02;;;8.90;99.90;;;;;;4920085;29;20039;-83
2022/04/13 05:18:33;;;;;;;18.48;8.02;;;8.90;99.90;;;;;;4910977;29;20129;-83
2022/04/13 05:20:59;;;;;;;15.98;8.13;;;8.90;99.90;;;;;;4912574;29;20056;-82
2022/04/13 05:23:25;;;;;;;22.35;9.00;;;8.90;99.90;;;;;;4913468;29;20104;-85
2022/04/13 05:25:50;;;;;;;29.35;9.43;;;9.00;99.90;;;;;;4912460;29;20039;-83
2022/04/13 05:28:16;;;;;;;21.95;8.63;;;9.10;99.90;;;;;;4911283;29;20107;-85
2022/04/13 05:30:42;;;;;;;19.88;8.68;;;9.10;99.90;;;;;;4935123;23;20060;-83
2022/04/13 05:33:08;;;;;;;19.63;8.88;;;9.10;99.90;;;;;;4892689;29;20028;-82
2022/04/13 05:35:34;;;;;;;21.52;8.70;;;9.10;99.90;;;;;;4907103;29;20053;-83
2022/04/13 05:38:02;;;;;;;21.50;8.57;;;9.20;99.90;;;;;;4905902;29;20092;-82
2022/04/13 05:40:28;;;;;;;26.30;8.35;;;9.30;99.90;;;;;;4907842;29;20028;-81
2022/04/13 05:42:54;;;;;;;19.92;9.68;;;9.30;99.90;;;;;;4916284;29;20024;-82
2022/04/13 05:45:20;;;;;;;20.20;8.52;;;9.40;99.90;;;;;;4906440;29;20025;-81
2022/04/13 05:47:46;;;;;;;24.08;8.60;;;9.40;99.90;;;;;;4908057;29;20028;-83
2022/04/13 05:50:13;;;;;;;17.52;8.15;;;9.50;99.90;;;;;;4907519;29;20555;-86
2022/04/13 05:52:40;;;;;;;18.20;8.38;;;9.50;99.90;;;;;;4891759;29;20176;-84
2022/04/13 05:55:07;;;;;;;22.60;8.63;;;9.60;99.90;;;;;;4907152;29;20117;-83
2022/04/13 05:57:33;;;;;;;25.98;9.43;;;9.60;99.90;;;;;;4905247;29;20024;-84
2022/04/13 05:59:59;;;;;;;23.77;9.23;;;9.70;99.90;;;;;;4910258;29;20031;-83
2022/04/13 06:02:25;;;;;;;23.00;8.60;;;9.70;99.90;;;;;;4909365;29;20447;-84
2022/04/13 06:04:51;;;;;;;22.05;8.35;;;9.80;99.90;;;;;;4893456;29;20052;-82
2022/04/13 06:07:17;;;;;;;24.15;9.15;;;9.90;99.90;;;;;;4929994;29;20226;-82
2022/04/13 06:09:43;;;;;;;18.63;8.68;;;10.00;99.80;;;;;;4924453;29;20021;-80
2022/04/13 06:12:09;;;;;;;23.38;8.93;;;10.00;99.80;;;;;;4915871;29;20084;-82
2022/04/13 06:14:34;;;;;;;18.20;8.68;;;10.00;99.40;;;;;;4905812;29;20042;-83
2022/04/13 06:17:00;;;;;;;23.95;7.82;;;10.10;99.40;;;;;;4907072;29;20057;-81
2022/04/13 06:19:26;;;;;;;18.90;8.45;;;10.20;99.40;;;;;;4906169;29;20084;-79
2022/04/13 06:21:52;;;;;;;28.73;8.93;;;10.30;98.90;;;;;;4911911;29;20114;-81
2022/04/13 06:24:18;;;;;;;17.08;8.00;;;10.40;98.90;;;;;;4909622;29;20108;-80
2022/04/13 06:26:43;;;;;;;17.45;8.07;;;10.50;98.80;;;;;;4908204;29;20115;-81
2022/04/13 06:29:09;;;;;;;24.15;9.07;;;10.60;98.50;;;;;;4907231;29;20033;-83
2022/04/13 06:31:35;;;;;;;24.75;8.68;;;10.70;98.30;;;;;;4911342;29;20076;-81
2022/04/13 06:34:01;;;;;;;21.80;9.13;;;10.80;98.40;;;;;;4913199;29;20060;-80
2022/04/13 06:36:27;;;;;;;20.98;8.35;;;10.80;98.00;;;;;;4926699;29;20036;-80
2022/04/13 06:38:53;;;;;;;24.65;9.63;;;10.90;98.10;;;;;;4919790;29;20121;-79
2022/04/13 06:41:21;;;;;;;25.27;9.27;;;11.00;98.10;;;;;;4905684;29;20088;-80
2022/04/13 06:43:47;;;;;;;16.85;8.07;;;11.10;97.80;;;;;;4908103;29;20035;-79
2022/04/13 06:46:13;;;;;;;17.30;8.30;;;11.20;97.40;;;;;;4906365;29;20024;-80
2022/04/13 06:48:39;;;;;;;19.40;8.38;;;11.20;97.10;;;;;;4910005;29;20392;-79
2022/04/13 06:51:05;;;;;;;17.45;8.07;;;11.20;97.00;;;;;;4910122;29;20035;-79
2022/04/13 06:53:31;;;;;;;22.33;8.13;;;11.20;96.90;;;;;;4905432;29;20025;-79
2022/04/13 06:56:02;;;;;;;25.73;8.35;;;11.30;96.80;;;;;;4904554;29;20036;-80
2022/04/13 06:58:31;;;;;;;18.73;8.10;;;11.50;96.70;;;;;;4905331;29;20029;-79
2022/04/13 07:00:57;;;;;;;18.27;8.13;;;11.50;96.30;;;;;;4903741;29;20099;-80
2022/04/13 07:03:24;;;;;;;23.83;7.88;;;11.50;96.20;;;;;;4909808;29;20032;-80
2022/04/13 07:05:50;;;;;;;22.80;8.25;;;11.40;96.60;;;;;;4898486;29;20016;-80
2022/04/13 07:08:15;;;;;;;18.83;8.48;;;11.40;96.60;;;;;;4915766;29;20404;-80
2022/04/13 07:10:41;;;;;;;17.48;8.00;;;11.50;96.20;;;;;;4912500;29;20039;-79
2022/04/13 07:13:07;;;;;;;16.88;7.75;;;11.70;96.20;;;;;;4908657;29;20064;-79
2022/04/13 07:15:33;;;;;;;20.42;9.52;;;11.70;95.90;;;;;;4906686;29;20048;-79
2022/04/13 07:17:59;;;;;;;17.55;8.35;;;11.80;95.90;;;;;;4905223;29;20037;-78
2022/04/13 07:20:25;;;;;;;22.17;9.00;;;11.90;95.80;;;;;;4904397;29;20111;-80
2022/04/13 07:22:53;;;;;;;20.70;8.60;;;11.90;95.60;;;;;;4908417;29;20068;-80
2022/04/13 07:25:19;;;;;;;19.88;8.55;;;11.90;95.60;;;;;;4906551;29;20029;-80
2022/04/13 07:27:49;;;;;;;18.75;7.75;;;12.00;95.50;;;;;;4905736;29;20028;-79
2022/04/13 07:30:15;;;;;;;14.40;7.65;;;12.20;95.70;;;;;;4901289;29;20039;-77
2022/04/13 07:32:46;;;;;;;15.35;7.75;;;12.20;95.40;;;;;;4896222;29;20084;-77
2022/04/13 07:35:12;;;;;;;18.63;7.75;;;12.30;95.20;;;;;;4903321;29;20020;-77
2022/04/13 07:37:43;;;;;;;22.08;8.27;;;12.30;95.20;;;;;;4906001;29;20545;-79
2022/04/13 07:40:13;;;;;;;17.75;8.30;;;12.40;95.00;;;;;;4903306;29;20044;-79
2022/04/13 07:42:39;;;;;;;20.77;8.55;;;12.50;94.90;;;;;;4906636;29;20044;-79
2022/04/13 07:45:06;;;;;;;27.98;8.70;;;12.60;95.10;;;;;;4901072;29;20088;-81
2022/04/13 07:47:32;;;;;;;19.25;8.32;;;12.70;94.80;;;;;;4902431;29;20029;-77
2022/04/13 07:49:58;;;;;;;29.50;8.05;;;12.80;94.70;;;;;;4908536;29;20031;-80
2022/04/13 07:52:24;;;;;;;27.45;8.45;;;12.80;94.40;;;;;;4907876;29;20036;-79
2022/04/13 07:54:50;;;;;;;16.27;7.20;;;13.00;94.30;;;;;;4898514;29;20056;-80
2022/04/13 07:57:16;;;;;;;17.42;8.05;;;13.10;94.20;;;;;;4903716;29;20028;-80
2022/04/13 07:59:42;;;;;;;17.65;7.72;;;13.20;94.10;;;;;;4903011;29;20039;-79
2022/04/13 08:02:09;;;;;;;19.77;8.02;;;13.30;93.80;;;;;;4921896;29;20028;-79
2022/04/13 08:04:35;;;;;;;24.58;7.50;;;13.30;93.60;;;;;;4929799;29;20054;-79
2022/04/13 08:07:01;;;;;;;20.75;7.78;;;13.50;93.50;;;;;;4918461;29;20083;-80
2022/04/13 08:09:27;;;;;;;19.95;7.75;;;13.50;93.30;;;;;;4920140;29;20039;-78
2022/04/13 08:11:53;;;;;;;22.90;8.48;;;13.60;92.90;;;;;;4905819;29;20028;-80
2022/04/13 08:14:22;;;;;;;18.15;7.63;;;13.70;92.70;;;;;;4906412;29;20029;-79
2022/04/13 08:16:50;;;;;;;15.60;7.63;;;13.70;92.90;;;;;;4909604;29;20084;-77
2022/04/13 08:19:15;;;;;;;23.20;7.85;;;13.80;92.60;;;;;;4902095;29;20088;-79
2022/04/13 08:21:41;;;;;;;21.65;6.97;;;13.80;92.60;;;;;;4917455;29;20036;-78
2022/04/13 08:24:07;;;;;;;25.40;8.02;;;13.90;92.50;;;;;;4915497;29;20028;-80
2022/04/13 08:26:33;;;;;;;17.45;7.32;;;13.90;92.50;;;;;;4905156;29;20172;-81
2022/04/13 08:28:59;;;;;;;14.30;6.90;;;14.00;92.20;;;;;;4909017;29;20039;-82
2022/04/13 08:31:24;;;;;;;30.05;7.38;;;14.10;91.60;;;;;;4909115;29;20029;-79
2022/04/13 08:33:50;;;;;;;25.25;7.95;;;14.10;91.80;;;;;;4910834;29;20032;-79
2022/04/13 08:36:17;;;;;;;26.85;8.20;;;14.10;91.80;;;;;;4913659;29;20037;-79
2022/04/13 08:38:42;;;;;;;20.35;7.70;;;14.20;91.90;;;;;;4907729;29;20032;-80
2022/04/13 08:41:15;;;;;;;24.23;7.75;;;14.20;91.80;;;;;;4912480;29;20067;-79
2022/04/13 08:43:45;;;;;;;20.30;7.47;;;14.20;91.60;;;;;;4908766;29;20029;-80
2022/04/13 08:46:18;;;;;;;21.05;7.75;;;14.20;91.30;;;;;;4912580;29;20511;-80
2022/04/13 08:48:47;;;;;;;22.67;7.72;;;14.20;91.40;;;;;;4908320;29;20046;-80
2022/04/13 08:51:17;;;;;;;25.60;7.25;;;14.20;91.30;;;;;;4909886;29;20040;-77
2022/04/13 08:53:50;;;;;;;16.85;8.18;;;14.20;91.40;;;;;;4923335;29;20028;-78
2022/04/13 08:56:19;;;;;;;24.38;7.80;;;14.30;91.40;;;;;;4934658;29;20112;-79
2022/04/13 08:59:04;;;;;;;19.60;7.15;;;14.40;91.40;;;;;;4937745;29;20032;-79
2022/04/13 09:01:43;;;;;;;25.77;7.40;;;14.50;91.40;;;;;;4928545;29;20028;-79
2022/04/13 09:04:12;;;;;;;21.58;8.38;;;14.70;91.40;;;;;;4921571;29;20055;-80
2022/04/13 09:06:43;;;;;;;22.00;8.02;;;14.70;91.20;;;;;;4905512;29;20005;-81
2022/04/13 09:09:19;;;;;;;19.10;7.57;;;14.80;90.90;;;;;;4919584;29;20025;-79
2022/04/13 09:11:46;;;;;;;24.65;7.45;;;14.80;90.90;;;;;;4921936;29;20032;-80
2022/04/13 09:14:13;;;;;;;23.73;7.47;;;15.00;90.70;;;;;;4919474;29;20032;-81
2022/04/13 09:16:41;;;;;;;24.80;8.45;;;15.10;90.60;;;;;;4921299;29;20031;-81
2022/04/13 09:19:08;;;;;;;18.92;7.95;;;15.40;90.10;;;;;;4895492;29;20048;-81
2022/04/13 09:21:34;;;;;;;29.42;8.38;;;15.70;89.90;;;;;;4892914;29;20037;-82
2022/04/13 09:24:00;;;;;;;19.05;7.55;;;16.10;88.50;;;;;;4889680;29;20041;-80
2022/04/13 09:26:29;;;;;;;19.90;7.25;;;16.50;87.30;;;;;;4911888;29;20040;-80
2022/04/13 09:28:54;;;;;;;25.08;7.97;;;17.00;85.50;;;;;;4917955;29;20016;-77
2022/04/13 09:31:21;;;;;;;17.67;7.22;;;17.50;84.60;;;;;;4918353;29;20033;-80
2022/04/13 09:33:47;;;;;;;19.58;7.60;;;18.10;82.50;;;;;;4917982;29;20029;-78
2022/04/13 09:36:13;;;;;;;17.42;7.63;;;18.70;80.60;;;;;;4919322;29;20112;-78
2022/04/13 09:38:39;;;;;;;20.38;8.05;;;19.40;78.80;;;;;;4903575;29;20029;-77
2022/04/13 09:41:07;;;;;;;18.80;8.07;;;19.90;76.50;;;;;;4918313;29;20041;-79
2022/04/13 09:43:32;;;;;;;18.13;7.22;;;20.60;75.00;;;;;;4918625;29;20025;-79
2022/04/13 09:45:58;;;;;;;20.17;8.07;;;21.30;72.00;;;;;;4920192;29;20024;-82
2022/04/13 09:48:26;;;;;;;14.13;7.57;;;21.90;70.40;;;;;;4935538;29;20058;-78
2022/04/13 09:50:56;;;;;;;16.83;7.78;;;22.40;68.50;;;;;;4911300;29;20505;-78
2022/04/13 09:53:21;;;;;;;17.80;7.30;;;22.80;67.30;;;;;;4911595;29;20486;-81
2022/04/13 09:56:01;;;;;;;16.00;7.97;;;23.00;65.90;;;;;;4907479;29;20031;-80
2022/04/13 09:58:32;;;;;;;16.48;7.95;;;23.50;64.30;;;;;;4919039;29;20064;-81
2022/04/13 10:01:03;;;;;;;29.27;11.18;;;23.90;63.10;;;;;;4910904;29;20033;-82
2022/04/13 10:03:29;;;;;;;18.98;7.57;;;24.40;62.00;;;;;;4909299;29;20029;-78
2022/04/13 10:05:57;;;;;;;16.63;7.80;;;25.20;60.10;;;;;;4910802;29;20044;-80
2022/04/13 10:08:24;;;;;;;17.52;8.10;;;25.50;58.50;;;;;;4911094;29;20067;-81
2022/04/13 10:10:58;;;;;;;18.23;8.02;;;25.30;58.10;;;;;;4908292;29;20027;-80
2022/04/13 10:13:34;;;;;;;17.08;8.23;;;25.10;57.80;;;;;;4909658;29;20039;-78
2022/04/13 10:16:03;;;;;;;14.30;8.07;;;25.30;58.00;;;;;;4905501;29;20029;-80
2022/04/13 10:18:31;;;;;;;20.05;7.72;;;25.60;57.30;;;;;;4919915;29;20107;-79
2022/04/13 10:20:57;;;;;;;15.18;8.02;;;26.20;56.60;;;;;;4911799;29;20088;-78
2022/04/13 10:23:23;;;;;;;20.70;7.40;;;27.10;55.50;;;;;;4918144;29;20133;-81
2022/04/13 10:25:48;;;;;;;18.00;7.97;;;27.00;54.10;;;;;;4927713;29;20040;-82
2022/04/13 10:28:21;;;;;;;16.92;7.32;;;26.70;54.40;;;;;;4925950;29;20059;-80
2022/04/13 10:30:48;;;;;;;15.77;7.25;;;27.20;53.90;;;;;;4908116;29;20047;-82
2022/04/13 10:33:14;;;;;;;17.92;7.60;;;27.50;53.60;;;;;;4905507;29;20410;-80
2022/04/13 10:35:43;;;;;;;17.77;7.82;;;27.50;53.10;;;;;;4898372;29;20261;-81
2022/04/13 10:38:09;;;;;;;13.57;7.35;;;27.60;52.80;;;;;;4904283;29;20446;-82
2022/04/13 10:40:39;;;;;;;12.70;7.20;;;28.20;52.20;;;;;;4905145;29;20024;-81
2022/04/13 10:43:06;;;;;;;15.73;7.22;;;28.30;51.80;;;;;;4905823;29;20079;-82
2022/04/13 10:45:36;;;;;;;12.98;7.05;;;27.80;51.40;;;;;;4906831;29;20064;-80
2022/04/13 10:48:06;;;;;;;13.10;7.35;;;27.30;52.00;;;;;;4909888;29;20036;-79
2022/04/13 10:50:50;;;;;;;15.65;7.05;;;27.30;52.20;;;;;;4911421;29;20043;-80
2022/04/13 10:53:20;;;;;;;21.98;6.57;;;27.20;51.90;;;;;;4909030;29;20029;-80
2022/04/13 10:55:56;;;;;;;19.10;8.00;;;27.50;52.10;;;;;;4909536;29;20038;-79
2022/04/13 10:58:41;;;;;;;16.38;9.00;;;27.90;51.40;;;;;;4924783;29;20115;-81
2022/04/13 11:01:14;;;;;;;22.65;7.60;;;28.20;50.50;;;;;;4905353;29;20522;-83
2022/04/13 11:03:41;;;;;;;17.55;7.25;;;27.60;51.00;;;;;;4913600;29;20033;-80
2022/04/13 11:06:09;;;;;;;14.75;7.20;;;28.20;50.80;;;;;;4904319;29;20021;-79
2022/04/13 11:08:46;;;;;;;20.02;7.40;;;28.20;51.30;;;;;;4904460;29;20119;-82
2022/04/13 11:11:24;;;;;;;17.20;7.65;;;29.10;50.20;;;;;;4912772;29;20033;-81
2022/04/13 11:13:52;;;;;;;14.70;6.63;;;29.00;49.30;;;;;;4912467;29;20037;-83
2022/04/13 11:16:22;;;;;;;17.33;7.78;;;28.90;49.60;;;;;;4918717;29;20092;-83
2022/04/13 11:19:06;;;;;;;10.95;6.30;;;29.00;49.90;;;;;;4907692;29;20059;-81
2022/04/13 11:21:34;;;;;;;22.27;7.03;;;28.90;49.50;;;;;;4906516;29;20043;-83
2022/04/13 11:24:00;;;;;;;18.08;7.45;;;28.80;49.50;;;;;;4886363;29;20047;-84
2022/04/13 11:26:34;;;;;;;13.95;6.30;;;29.20;49.10;;;;;;4909107;29;20029;-80
2022/04/13 11:29:09;;;;;;;16.23;6.85;;;29.00;48.80;;;;;;4898231;29;20025;-83
2022/04/13 11:32:00;;;;;;;13.60;5.93;;;28.30;49.10;;;;;;4922188;23;20061;-88
2022/04/13 11:34:51;;;;;;;16.58;6.30;;;28.40;49.30;;;;;;4895317;29;20044;-88
2022/04/13 11:37:24;;;;;;;21.25;6.28;;;28.70;48.70;;;;;;4895770;29;20025;-88
2022/04/13 11:39:59;;;;;;;19.88;6.55;;;29.10;48.70;;;;;;4908640;29;20032;-87
2022/04/13 11:42:34;;;;;;;13.40;6.45;;;30.00;48.50;;;;;;4896894;29;20037;-88
2022/04/13 11:45:16;;;;;;;17.50;7.45;;;29.60;47.80;;;;;;4896673;29;20013;-87
2022/04/13 11:47:44;;;;;;;18.88;6.75;;;29.40;48.30;;;;;;4891475;29;20096;-87
2022/04/13 11:50:12;;;;;;;12.98;6.30;;;29.60;47.90;;;;;;4912526;29;20037;-88
2022/04/13 11:52:49;;;;;;;12.60;6.20;;;30.00;47.90;;;;;;4910534;29;20029;-87
2022/04/13 11:55:27;;;;;;;14.75;5.38;;;30.90;47.00;;;;;;4915099;29;20048;-87
2022/04/13 11:58:08;;;;;;;10.57;5.95;;;29.40;46.70;;;;;;4900487;29;20084;-87
2022/04/13 12:00:58;;;;;;;11.30;4.82;;;28.10;47.80;;;;;;4916877;29;20072;-87
2022/04/13 12:03:32;;;;;;;13.73;5.30;;;28.10;48.40;;;;;;4917028;29;20049;-88
2022/04/13 12:06:01;;;;;;;15.65;6.28;;;29.50;48.40;;;;;;4902209;29;20026;-87
2022/04/13 12:08:32;;;;;;;13.00;6.03;;;30.10;47.20;;;;;;4915412;29;20040;-88
2022/04/13 12:11:01;;;;;;;15.57;5.85;;;30.10;47.10;;;;;;4902983;29;20056;-88
2022/04/13 12:13:32;;;;;;;10.95;5.38;;;30.10;46.70;;;;;;4900343;29;20029;-87
2022/04/13 12:15:59;;;;;;;13.23;5.72;;;30.60;46.90;;;;;;4896145;29;20021;-88
2022/04/13 12:18:26;;;;;;;14.70;5.30;;;30.70;46.80;;;;;;4887834;29;20056;-86
2022/04/13 12:21:06;;;;;;;8.48;5.22;;;31.20;46.50;;;;;;4902132;29;20088;-87
2022/04/13 12:23:35;;;;;;;9.40;5.50;;;31.30;45.60;;;;;;4897910;29;20027;-88
2022/04/13 12:26:01;;;;;;;11.70;5.18;;;31.20;46.40;;;;;;4918037;29;20028;-87
2022/04/13 12:28:27;;;;;;;10.52;5.32;;;31.40;45.70;;;;;;4901662;29;20056;-87
2022/04/13 12:31:01;;;;;;;14.20;5.40;;;31.80;45.50;;;;;;4902614;29;20033;-89
2022/04/13 12:33:28;;;;;;;;;;;30.80;45.10;;;;;;4901436;29;20070;-88
2022/04/13 12:35:59;;;;;;;8.65;5.25;;;30.20;45.40;;;;;;4898371;29;19907;-88
2022/04/13 12:38:34;;;;;;;10.25;5.35;;;29.30;45.90;;;;;;4907524;29;20041;-86
2022/04/13 12:41:01;;;;;;;9.88;4.65;;;29.20;46.40;;;;;;4888639;29;20029;-88